createdAt,value
2018-08-20T00:00:58.144Z,15.20
2018-08-20T00:03:25.377Z,15.20
2018-08-20T00:05:53.641Z,15.20
2018-08-20T00:08:21.469Z,15.20
2018-08-20T00:10:51.833Z,15.10
2018-08-20T00:13:19.079Z,15.10
2018-08-20T00:15:46.278Z,15.10
2018-08-20T00:18:18.106Z,15.00
2018-08-20T00:20:45.375Z,15.10
2018-08-20T00:23:12.730Z,15.00
2018-08-20T00:25:39.930Z,15.00
2018-08-20T00:28:07.143Z,15.00
2018-08-20T00:30:34.397Z,14.90
2018-08-20T00:33:01.607Z,14.90
2018-08-20T00:35:28.834Z,14.90
2018-08-20T00:37:56.042Z,14.90
2018-08-20T00:40:23.274Z,14.90
2018-08-20T00:42:50.501Z,14.90
2018-08-20T00:45:17.733Z,14.80
2018-08-20T00:47:44.938Z,14.80
2018-08-20T00:50:12.153Z,14.80
2018-08-20T00:52:39.374Z,14.80
2018-08-20T00:55:09.578Z,14.70
2018-08-20T00:57:36.867Z,14.70
2018-08-20T01:00:04.554Z,14.70
2018-08-20T01:05:04.778Z,14.80
2018-08-20T01:07:31.981Z,14.80
2018-08-20T01:09:59.188Z,14.90
2018-08-20T01:12:27.093Z,14.90
2018-08-20T01:14:54.338Z,15.00
2018-08-20T01:17:21.627Z,15.00
2018-08-20T01:19:48.836Z,15.10
2018-08-20T01:22:16.266Z,15.10
2018-08-20T01:24:43.486Z,15.20
2018-08-20T01:27:15.385Z,15.30
2018-08-20T01:29:42.741Z,15.30
2018-08-20T01:32:10.082Z,15.40
2018-08-20T01:34:37.310Z,15.50
2018-08-20T01:37:04.550Z,15.50
2018-08-20T01:39:31.746Z,15.60
2018-08-20T01:41:58.966Z,15.60
2018-08-20T01:44:26.166Z,15.70
2018-08-20T01:46:53.367Z,15.70
2018-08-20T01:49:20.586Z,15.80
2018-08-20T01:51:47.818Z,15.90
2018-08-20T01:54:15.062Z,15.90
2018-08-20T01:56:42.305Z,15.90
2018-08-20T01:59:09.661Z,16.00
2018-08-20T02:01:36.877Z,16.10
2018-08-20T02:04:04.118Z,16.10
2018-08-20T02:06:31.350Z,16.20
2018-08-20T02:08:58.566Z,16.20
2018-08-20T02:11:25.778Z,16.30
2018-08-20T02:13:52.981Z,16.30
2018-08-20T02:16:20.210Z,16.30
2018-08-20T02:18:47.406Z,16.40
2018-08-20T02:21:14.634Z,16.40
2018-08-20T02:23:41.829Z,16.40
2018-08-20T02:26:09.058Z,16.50
2018-08-20T02:28:36.265Z,16.50
2018-08-20T02:31:03.498Z,16.50
2018-08-20T02:33:30.715Z,16.50
2018-08-20T02:35:57.994Z,16.60
2018-08-20T02:38:25.222Z,16.60
2018-08-20T02:40:52.425Z,16.60
2018-08-20T02:43:19.642Z,16.60
2018-08-20T02:45:46.861Z,16.70
2018-08-20T02:48:14.098Z,16.70
2018-08-20T02:50:41.302Z,16.70
2018-08-20T02:53:08.544Z,16.70
2018-08-20T02:55:35.772Z,16.80
2018-08-20T02:58:02.977Z,16.80
2018-08-20T03:00:30.191Z,16.80
2018-08-20T03:03:02.574Z,16.80
2018-08-20T03:05:30.082Z,16.90
2018-08-20T03:07:57.310Z,16.80
2018-08-20T03:10:24.515Z,16.90
2018-08-20T03:12:51.727Z,16.90
2018-08-20T03:15:18.958Z,16.90
2018-08-20T03:17:46.186Z,16.90
2018-08-20T03:20:13.409Z,17.00
2018-08-20T03:22:40.649Z,17.00
2018-08-20T03:25:08.236Z,17.00
2018-08-20T03:27:35.468Z,17.00
2018-08-20T03:30:03.237Z,17.00
2018-08-20T03:32:30.441Z,17.10
2018-08-20T03:34:57.683Z,17.10
2018-08-20T03:37:24.890Z,17.10
2018-08-20T03:39:52.098Z,17.10
2018-08-20T03:42:19.306Z,17.10
2018-08-20T03:44:46.514Z,17.20
2018-08-20T03:47:13.715Z,17.20
2018-08-20T03:49:41.109Z,17.20
2018-08-20T03:52:08.345Z,17.20
2018-08-20T03:54:35.574Z,17.20
2018-08-20T03:57:02.787Z,17.20
2018-08-20T03:59:34.441Z,17.20
2018-08-20T04:02:03.526Z,17.20
2018-08-20T04:04:31.007Z,17.30
2018-08-20T04:06:59.871Z,17.30
2018-08-20T04:09:27.398Z,17.30
2018-08-20T04:11:54.634Z,17.30
2018-08-20T04:14:21.833Z,17.30
2018-08-20T04:16:49.094Z,17.30
2018-08-20T04:19:16.303Z,17.40
2018-08-20T04:21:43.558Z,17.40
2018-08-20T04:24:10.757Z,17.40
2018-08-20T04:26:37.970Z,17.40
2018-08-20T04:29:05.438Z,17.40
2018-08-20T04:31:32.642Z,17.40
2018-08-20T04:33:59.890Z,17.50
2018-08-20T04:36:27.190Z,17.50
2018-08-20T04:38:54.358Z,17.50
2018-08-20T04:41:21.606Z,17.60
2018-08-20T04:43:48.814Z,17.60
2018-08-20T04:46:16.734Z,17.60
2018-08-20T04:48:43.949Z,17.60
2018-08-20T04:51:12.002Z,17.60
2018-08-20T04:53:39.053Z,17.70
2018-08-20T04:56:06.330Z,17.70
2018-08-20T04:58:33.530Z,17.70
2018-08-20T05:01:00.766Z,17.80
2018-08-20T05:03:28.002Z,17.80
2018-08-20T05:05:55.230Z,17.80
2018-08-20T05:08:22.530Z,17.90
2018-08-20T05:10:49.756Z,17.90
2018-08-20T05:13:17.010Z,17.90
2018-08-20T05:15:44.238Z,18.00
2018-08-20T05:18:11.461Z,18.00
2018-08-20T05:20:38.697Z,18.00
2018-08-20T05:23:05.936Z,18.10
2018-08-20T05:25:33.158Z,18.10
2018-08-20T05:28:00.418Z,18.10
2018-08-20T05:30:27.677Z,18.20
2018-08-20T05:32:54.919Z,18.20
2018-08-20T05:35:22.147Z,18.30
2018-08-20T05:37:49.386Z,18.30
2018-08-20T05:40:16.604Z,18.30
2018-08-20T05:42:43.858Z,18.40
2018-08-20T05:45:11.685Z,18.40
2018-08-20T05:47:39.050Z,18.50
2018-08-20T05:50:06.806Z,18.50
2018-08-20T05:52:34.179Z,18.60
2018-08-20T05:55:01.315Z,18.70
2018-08-20T05:57:28.614Z,18.70
2018-08-20T05:59:55.835Z,18.70
2018-08-20T06:02:23.102Z,18.80
2018-08-20T06:04:50.306Z,18.80
2018-08-20T06:07:17.530Z,18.90
2018-08-20T06:09:45.369Z,19.00
2018-08-20T06:12:12.601Z,19.00
2018-08-20T06:14:39.819Z,19.10
2018-08-20T06:17:07.090Z,19.10
2018-08-20T06:19:34.303Z,19.30
2018-08-20T06:22:01.514Z,19.40
2018-08-20T06:24:28.721Z,19.70
2018-08-20T06:26:55.934Z,19.80
2018-08-20T06:29:23.154Z,20.00
2018-08-20T06:31:50.454Z,20.10
2018-08-20T06:34:17.713Z,20.30
2018-08-20T06:36:44.927Z,20.40
2018-08-20T06:39:12.169Z,20.60
2018-08-20T06:41:39.402Z,20.60
2018-08-20T06:44:06.869Z,20.70
2018-08-20T06:46:34.132Z,20.80
2018-08-20T06:49:01.419Z,20.90
2018-08-20T06:51:28.645Z,21.10
2018-08-20T06:53:55.882Z,21.20
2018-08-20T06:56:23.079Z,21.50
2018-08-20T06:58:50.310Z,21.60
2018-08-20T07:01:17.526Z,21.60
2018-08-20T07:03:44.773Z,21.80
2018-08-20T07:06:12.532Z,21.80
2018-08-20T07:08:39.762Z,22.00
2018-08-20T07:11:06.986Z,22.00
2018-08-20T07:13:35.271Z,22.00
2018-08-20T07:16:02.605Z,21.90
2018-08-20T07:18:29.898Z,21.90
2018-08-20T07:20:57.130Z,22.00
2018-08-20T07:23:24.395Z,22.00
2018-08-20T07:25:51.610Z,22.00
2018-08-20T07:28:18.818Z,22.00
2018-08-20T07:30:46.282Z,22.00
2018-08-20T07:33:13.522Z,21.90
2018-08-20T07:35:40.747Z,22.00
2018-08-20T07:38:08.255Z,22.00
2018-08-20T07:40:35.486Z,22.00
2018-08-20T07:43:02.954Z,22.10
2018-08-20T07:45:30.158Z,22.10
2018-08-20T07:50:31.226Z,22.30
2018-08-20T07:52:58.478Z,22.40
2018-08-20T07:55:25.714Z,22.40
2018-08-20T07:57:52.930Z,22.40
2018-08-20T08:00:20.353Z,22.50
2018-08-20T08:02:47.616Z,22.60
2018-08-20T08:05:14.837Z,22.60
2018-08-20T08:07:42.070Z,22.60
2018-08-20T08:10:11.230Z,22.50
2018-08-20T08:12:38.678Z,22.50
2018-08-20T08:15:06.870Z,22.50
2018-08-20T08:17:34.107Z,22.50
2018-08-20T08:20:01.369Z,22.50
2018-08-20T08:22:28.677Z,22.50
2018-08-20T08:24:56.186Z,22.50
2018-08-20T08:27:23.498Z,22.50
2018-08-20T08:29:51.487Z,22.50
2018-08-20T08:32:18.750Z,22.60
2018-08-20T08:34:46.002Z,22.50
2018-08-20T08:37:13.222Z,22.50
2018-08-20T08:39:40.449Z,22.50
2018-08-20T08:42:07.667Z,22.40
2018-08-20T08:44:34.906Z,22.40
2018-08-20T08:47:02.130Z,22.40
2018-08-20T08:49:29.378Z,22.60
2018-08-20T08:51:56.789Z,22.70
2018-08-20T08:54:24.046Z,22.90
2018-08-20T08:56:51.274Z,23.10
2018-08-20T08:59:18.485Z,23.40
2018-08-20T09:01:45.811Z,23.50
2018-08-20T09:04:13.054Z,23.50
2018-08-20T09:06:40.305Z,23.40
2018-08-20T09:09:08.269Z,23.40
2018-08-20T09:11:35.522Z,23.40
2018-08-20T09:14:02.752Z,23.50
2018-08-20T09:16:29.997Z,23.60
2018-08-20T09:18:57.222Z,23.70
2018-08-20T09:21:24.484Z,23.80
2018-08-20T09:23:51.717Z,23.90
2018-08-20T09:26:18.949Z,24.00
2018-08-20T09:28:46.169Z,24.10
2018-08-20T09:31:13.398Z,24.30
2018-08-20T09:33:40.614Z,24.60
2018-08-20T09:36:14.589Z,24.80
2018-08-20T09:38:41.818Z,24.90
2018-08-20T09:41:09.060Z,25.00
2018-08-20T09:43:36.297Z,25.20
2018-08-20T09:46:03.614Z,25.40
2018-08-20T09:48:30.888Z,25.60
2018-08-20T09:50:58.181Z,25.70
2018-08-20T09:53:25.865Z,25.70
2018-08-20T09:55:53.058Z,25.80
2018-08-20T09:58:20.319Z,25.80
2018-08-20T10:00:47.554Z,25.90
2018-08-20T10:03:14.790Z,25.90
2018-08-20T10:05:42.034Z,25.90
2018-08-20T10:08:09.359Z,26.00
2018-08-20T10:10:36.570Z,25.90
2018-08-20T10:13:03.830Z,25.80
2018-08-20T10:15:31.062Z,25.70
2018-08-20T10:17:58.301Z,25.60
2018-08-20T10:20:25.554Z,25.60
2018-08-20T10:22:52.810Z,25.70
2018-08-20T10:25:20.072Z,25.70
2018-08-20T10:27:47.321Z,25.80
2018-08-20T10:30:14.538Z,25.80
2018-08-20T10:32:42.015Z,25.80
2018-08-20T10:35:09.238Z,25.80
2018-08-20T10:37:36.523Z,25.70
2018-08-20T10:40:04.430Z,25.60
2018-08-20T10:42:31.658Z,25.50
2018-08-20T10:45:04.586Z,25.50
2018-08-20T10:47:31.812Z,25.40
2018-08-20T10:49:59.038Z,25.30
2018-08-20T10:52:26.546Z,25.20
2018-08-20T10:54:53.750Z,25.20
2018-08-20T10:57:20.950Z,25.10
2018-08-20T10:59:48.161Z,25.00
2018-08-20T11:02:15.394Z,24.90
2018-08-20T11:04:42.618Z,24.90
2018-08-20T11:07:09.830Z,24.90
2018-08-20T11:09:37.031Z,24.90
2018-08-20T11:12:04.327Z,24.90
2018-08-20T11:14:31.538Z,24.90
2018-08-20T11:16:58.830Z,24.70
2018-08-20T11:19:26.067Z,24.70
2018-08-20T11:21:53.320Z,24.60
2018-08-20T11:24:20.542Z,24.60
2018-08-20T11:26:48.492Z,24.60
2018-08-20T11:29:16.090Z,24.70
2018-08-20T11:31:43.297Z,24.60
2018-08-20T11:34:10.605Z,24.70
2018-08-20T11:36:37.891Z,24.80
2018-08-20T11:39:05.783Z,24.90
2018-08-20T11:41:32.998Z,25.00
2018-08-20T11:44:00.243Z,25.20
2018-08-20T11:46:27.474Z,25.30
2018-08-20T11:48:54.739Z,25.50
2018-08-20T11:51:22.021Z,25.50
2018-08-20T11:53:49.277Z,25.60
2018-08-20T11:56:16.494Z,25.50
2018-08-20T11:58:43.738Z,25.60
2018-08-20T12:01:10.966Z,25.70
2018-08-20T12:03:38.213Z,25.90
2018-08-20T12:06:05.608Z,25.90
2018-08-20T12:08:32.915Z,26.00
2018-08-20T12:11:00.130Z,26.00
2018-08-20T12:13:27.422Z,26.00
2018-08-20T12:15:54.643Z,26.00
2018-08-20T12:18:21.937Z,25.90
2018-08-20T12:20:49.158Z,25.90
2018-08-20T12:23:16.455Z,26.00
2018-08-20T12:25:43.622Z,26.10
2018-08-20T12:28:10.936Z,26.20
2018-08-20T12:30:38.152Z,26.30
2018-08-20T12:33:05.398Z,26.30
2018-08-20T12:35:32.626Z,26.30
2018-08-20T12:37:59.858Z,26.20
2018-08-20T12:40:27.308Z,26.30
2018-08-20T12:42:54.327Z,26.30
2018-08-20T12:45:21.559Z,26.30
2018-08-20T12:47:48.850Z,26.30
2018-08-20T12:50:16.111Z,26.30
2018-08-20T12:52:43.467Z,26.30
2018-08-20T12:55:10.702Z,26.30
2018-08-20T12:57:37.922Z,26.30
2018-08-20T13:00:05.893Z,26.20
2018-08-20T13:02:33.110Z,26.20
2018-08-20T13:05:00.338Z,26.10
2018-08-20T13:07:27.631Z,26.00
2018-08-20T13:09:54.854Z,26.00
2018-08-20T13:12:22.057Z,26.00
2018-08-20T13:14:49.281Z,25.90
2018-08-20T13:17:17.295Z,25.80
2018-08-20T13:19:44.550Z,25.80
2018-08-20T13:22:11.759Z,25.90
2018-08-20T13:24:38.994Z,25.80
2018-08-20T13:27:06.247Z,25.80
2018-08-20T13:29:33.501Z,25.80
2018-08-20T13:32:00.727Z,25.90
2018-08-20T13:34:28.150Z,25.80
2018-08-20T13:36:55.370Z,25.70
2018-08-20T13:39:22.634Z,25.70
2018-08-20T13:41:49.867Z,25.60
2018-08-20T13:44:17.110Z,25.50
2018-08-20T13:46:44.374Z,25.60
2018-08-20T13:49:11.587Z,25.50
2018-08-20T13:51:38.835Z,25.50
2018-08-20T13:54:06.098Z,25.40
2018-08-20T13:56:33.822Z,25.40
2018-08-20T13:59:01.078Z,25.40
2018-08-20T14:01:28.878Z,25.30
2018-08-20T14:03:56.603Z,25.20
2018-08-20T14:06:23.874Z,25.10
2018-08-20T14:08:51.072Z,25.10
2018-08-20T14:11:18.297Z,24.90
2018-08-20T14:13:45.537Z,24.80
2018-08-20T14:16:12.758Z,24.80
2018-08-20T14:18:39.967Z,24.80
2018-08-20T14:21:10.997Z,24.70
2018-08-20T14:23:39.811Z,24.50
2018-08-20T14:26:07.022Z,24.40
2018-08-20T14:28:34.231Z,24.20
2018-08-20T14:31:01.452Z,24.00
2018-08-20T14:33:28.700Z,23.90
2018-08-20T14:35:55.926Z,23.80
2018-08-20T14:38:23.136Z,23.90
2018-08-20T14:40:50.339Z,23.90
2018-08-20T14:43:17.577Z,23.90
2018-08-20T14:45:50.465Z,24.00
2018-08-20T14:48:17.670Z,24.10
2018-08-20T14:50:44.881Z,24.20
2018-08-20T14:53:12.155Z,24.20
2018-08-20T14:55:39.397Z,24.20
2018-08-20T14:58:06.622Z,24.20
2018-08-20T15:00:33.951Z,24.20
2018-08-20T15:03:01.042Z,24.20
2018-08-20T15:05:28.273Z,24.30
2018-08-20T15:07:55.498Z,24.40
2018-08-20T15:10:22.734Z,24.40
2018-08-20T15:12:49.990Z,24.50
2018-08-20T15:15:17.252Z,24.50
2018-08-20T15:17:45.144Z,24.60
2018-08-20T15:20:12.406Z,24.60
2018-08-20T15:22:39.713Z,24.60
2018-08-20T15:25:06.962Z,24.60
2018-08-20T15:27:34.798Z,24.70
2018-08-20T15:30:02.080Z,24.60
2018-08-20T15:32:29.348Z,24.50
2018-08-20T15:34:56.534Z,24.50
2018-08-20T15:37:23.750Z,24.50
2018-08-20T15:39:50.969Z,24.40
2018-08-20T15:42:18.197Z,24.40
2018-08-20T15:44:45.409Z,24.40
2018-08-20T15:47:12.654Z,24.40
2018-08-20T15:49:39.893Z,24.40
2018-08-20T15:52:07.106Z,24.40
2018-08-20T15:54:34.335Z,24.40
2018-08-20T15:57:01.547Z,24.40
2018-08-20T15:59:28.778Z,24.40
2018-08-20T16:01:56.863Z,24.30
2018-08-20T16:04:24.110Z,24.30
2018-08-20T16:06:51.386Z,24.30
2018-08-20T16:09:18.599Z,24.30
2018-08-20T16:11:45.794Z,24.30
2018-08-20T16:14:13.011Z,24.30
2018-08-20T16:16:40.203Z,24.40
2018-08-20T16:19:07.414Z,24.50
2018-08-20T16:21:34.624Z,24.50
2018-08-20T16:24:01.905Z,24.50
2018-08-20T16:26:29.224Z,24.50
2018-08-20T16:28:56.436Z,24.50
2018-08-20T16:31:23.682Z,24.40
2018-08-20T16:33:50.882Z,24.40
2018-08-20T16:36:18.089Z,24.40
2018-08-20T16:38:45.301Z,24.40
2018-08-20T16:41:12.513Z,24.30
2018-08-20T16:43:39.783Z,24.30
2018-08-20T16:46:07.022Z,24.30
2018-08-20T16:48:34.334Z,24.20
2018-08-20T16:51:01.652Z,24.20
2018-08-20T16:53:30.392Z,24.30
2018-08-20T16:55:57.978Z,24.30
2018-08-20T16:58:25.183Z,24.30
2018-08-20T17:00:52.426Z,24.30
2018-08-20T17:03:19.668Z,24.20
2018-08-20T17:05:48.328Z,24.10
2018-08-20T17:08:34.627Z,24.10
2018-08-20T17:11:01.909Z,24.00
2018-08-20T17:13:30.538Z,23.90
2018-08-20T17:15:57.836Z,23.90
2018-08-20T17:18:25.147Z,23.80
2018-08-20T17:20:52.374Z,23.80
2018-08-20T17:23:20.918Z,23.70
2018-08-20T17:25:48.189Z,23.70
2018-08-20T17:28:19.686Z,23.60
2018-08-20T17:30:47.583Z,23.60
2018-08-20T17:33:14.806Z,23.60
2018-08-20T17:35:42.655Z,23.50
2018-08-20T17:38:09.982Z,23.50
2018-08-20T17:40:38.193Z,23.40
2018-08-20T17:43:05.779Z,23.40
2018-08-20T17:45:33.026Z,23.40
2018-08-20T17:48:00.276Z,23.30
2018-08-20T17:50:39.109Z,23.30
2018-08-20T17:53:06.363Z,23.20
2018-08-20T17:55:33.617Z,23.20
2018-08-20T17:58:00.867Z,23.10
2018-08-20T18:00:39.337Z,23.10
2018-08-20T18:03:08.598Z,23.00
2018-08-20T18:05:37.303Z,23.00
2018-08-20T18:08:04.544Z,22.90
2018-08-20T18:10:32.691Z,22.90
2018-08-20T18:12:59.894Z,22.80
2018-08-20T18:15:27.150Z,22.80
2018-08-20T18:17:54.367Z,22.70
2018-08-20T18:20:21.592Z,22.60
2018-08-20T18:22:48.799Z,22.50
2018-08-20T18:25:16.018Z,22.50
2018-08-20T18:27:44.245Z,22.40
2018-08-20T18:30:12.723Z,22.30
2018-08-20T18:32:39.920Z,22.20
2018-08-20T18:35:07.214Z,22.20
2018-08-20T18:37:42.795Z,22.10
2018-08-20T18:40:10.018Z,22.00
2018-08-20T18:42:42.839Z,22.00
2018-08-20T18:45:10.070Z,21.90
2018-08-20T18:47:37.279Z,21.80
2018-08-20T18:50:04.639Z,21.80
2018-08-20T18:52:31.935Z,21.70
2018-08-20T18:54:59.687Z,21.60
2018-08-20T18:57:30.222Z,21.60
2018-08-20T18:59:58.385Z,21.50
2018-08-20T19:02:57.586Z,21.50
2018-08-20T19:05:25.381Z,21.40
2018-08-20T19:07:52.621Z,21.30
2018-08-20T19:10:22.734Z,21.20
2018-08-20T19:12:49.958Z,21.10
2018-08-20T19:15:30.439Z,21.00
2018-08-20T19:17:57.758Z,21.00
2018-08-20T19:20:24.999Z,20.90
2018-08-20T19:22:52.226Z,20.80
2018-08-20T19:25:19.526Z,20.80
2018-08-20T19:27:46.741Z,20.70
2018-08-20T19:30:19.820Z,20.70
2018-08-20T19:32:47.062Z,20.60
2018-08-20T19:35:14.350Z,20.60
2018-08-20T19:37:41.689Z,20.50
2018-08-20T19:40:08.981Z,20.50
2018-08-20T19:42:36.194Z,20.40
2018-08-20T19:45:05.213Z,20.30
2018-08-20T19:47:32.606Z,20.30
2018-08-20T19:49:59.846Z,20.30
2018-08-20T19:52:27.173Z,20.20
2018-08-20T19:54:58.938Z,20.10
2018-08-20T19:57:26.181Z,20.10
2018-08-20T19:59:53.414Z,20.00
2018-08-20T20:02:20.674Z,19.90
2018-08-20T20:04:47.898Z,19.90
2018-08-20T20:07:15.129Z,19.80
2018-08-20T20:09:42.382Z,19.70
2018-08-20T20:12:09.607Z,19.70
2018-08-20T20:14:42.564Z,19.50
2018-08-20T20:17:09.813Z,19.50
2018-08-20T20:19:37.023Z,19.40
2018-08-20T20:22:05.874Z,19.30
2018-08-20T20:24:33.079Z,19.30
2018-08-20T20:27:00.298Z,19.20
2018-08-20T20:29:27.509Z,19.10
2018-08-20T20:31:54.720Z,19.10
2018-08-20T20:34:21.942Z,19.00
2018-08-20T20:36:49.154Z,19.00
2018-08-20T20:39:16.388Z,19.00
2018-08-20T20:41:43.703Z,18.90
2018-08-20T20:44:11.323Z,18.90
2018-08-20T20:46:38.541Z,18.90
2018-08-20T20:49:05.779Z,18.90
2018-08-20T20:51:33.022Z,18.90
2018-08-20T20:54:00.310Z,18.90
2018-08-20T20:56:27.618Z,18.90
2018-08-20T20:58:54.802Z,18.80
2018-08-20T21:01:22.029Z,18.80
2018-08-20T21:03:49.239Z,18.80
2018-08-20T21:06:16.466Z,18.80
2018-08-20T21:08:45.566Z,18.80
2018-08-20T21:11:13.815Z,18.70
2018-08-20T21:13:41.610Z,18.70
2018-08-20T21:16:10.866Z,18.80
2018-08-20T21:18:52.792Z,18.70
2018-08-20T21:21:20.398Z,18.80
2018-08-20T21:23:47.646Z,18.80
2018-08-20T21:26:14.882Z,18.80
2018-08-20T21:28:50.401Z,18.70
2018-08-20T21:31:18.870Z,18.70
2018-08-20T21:33:46.251Z,18.80
2018-08-20T21:36:13.987Z,18.70
2018-08-20T21:38:41.530Z,18.70
2018-08-20T21:41:08.775Z,18.70
2018-08-20T21:43:41.636Z,18.70
2018-08-20T21:46:09.436Z,18.70
2018-08-20T21:48:36.933Z,18.70
2018-08-20T21:51:07.973Z,18.70
2018-08-20T21:53:37.813Z,18.70
2018-08-20T21:56:07.265Z,18.70
2018-08-20T21:58:35.719Z,18.70
2018-08-20T22:01:03.324Z,18.70
2018-08-20T22:03:30.484Z,18.70
2018-08-20T22:05:57.714Z,18.70
2018-08-20T22:08:24.998Z,18.70
2018-08-20T22:10:52.326Z,18.70
2018-08-20T22:13:19.550Z,18.70
2018-08-20T22:16:01.593Z,18.70
2018-08-20T22:18:33.406Z,18.70
2018-08-20T22:21:00.601Z,18.70
2018-08-20T22:23:39.083Z,18.60
2018-08-20T22:25:56.606Z,18.60
2018-08-20T22:28:24.153Z,18.60
2018-08-20T22:30:54.917Z,18.60
2018-08-20T22:33:22.327Z,18.60
2018-08-20T22:35:49.581Z,18.60
2018-08-20T22:38:16.768Z,18.60
2018-08-20T22:40:44.974Z,18.60
2018-08-20T22:43:12.252Z,18.60
2018-08-20T22:45:40.487Z,18.60
2018-08-20T22:48:07.711Z,18.60
2018-08-20T22:50:34.931Z,18.60
2018-08-20T22:53:02.221Z,18.60
2018-08-20T22:55:29.455Z,18.60
2018-08-20T22:58:06.778Z,18.60
2018-08-20T23:00:34.045Z,18.50
2018-08-20T23:03:01.277Z,18.50
2018-08-20T23:05:29.674Z,18.50
2018-08-20T23:07:59.680Z,18.50
2018-08-20T23:10:26.910Z,18.50
2018-08-20T23:12:54.132Z,18.50
2018-08-20T23:15:21.358Z,18.50
2018-08-20T23:17:48.610Z,18.50
2018-08-20T23:20:21.834Z,18.50
2018-08-20T23:22:49.050Z,18.50
2018-08-20T23:25:16.279Z,18.50
2018-08-20T23:27:43.499Z,18.50
2018-08-20T23:30:12.292Z,18.50
2018-08-20T23:32:39.498Z,18.50
2018-08-20T23:35:06.730Z,18.50
2018-08-20T23:37:34.138Z,18.40
2018-08-20T23:40:01.378Z,18.40
2018-08-20T23:42:28.599Z,18.40
2018-08-20T23:44:56.378Z,18.40
2018-08-20T23:47:23.593Z,18.40
2018-08-20T23:49:51.847Z,18.40
2018-08-20T23:52:19.095Z,18.40
2018-08-20T23:54:46.303Z,18.40
2018-08-20T23:57:13.519Z,18.40
2018-08-20T23:59:40.751Z,18.40
